sensor_id;sensor_type;location;lat;lon;timestamp;temperature;humidity
11894;DHT22;6006;49.696;8.662;2023-02-01T00:01:47;5.10;99.90
11894;DHT22;6006;49.696;8.662;2023-02-01T00:04:14;5.10;99.90
11894;DHT22;6006;49.696;8.662;2023-02-01T00:06:41;5.10;99.90
11894;DHT22;6006;49.696;8.662;2023-02-01T00:09:08;5.10;99.90
11894;DHT22;6006;49.696;8.662;2023-02-01T00:11:35;5.10;99.90
11894;DHT22;6006;49.696;8.662;2023-02-01T00:14:03;5.00;99.90
11894;DHT22;6006;49.696;8.662;2023-02-01T00:16:31;5.00;99.90
11894;DHT22;6006;49.696;8.662;2023-02-01T00:19:00;5.00;99.90
11894;DHT22;6006;49.696;8.662;2023-02-01T00:21:28;5.00;99.90
11894;DHT22;6006;49.696;8.662;2023-02-01T00:23:55;5.00;99.90
11894;DHT22;6006;49.696;8.662;2023-02-01T00:26:26;5.00;99.90
11894;DHT22;6006;49.696;8.662;2023-02-01T00:28:54;5.00;99.90
11894;DHT22;6006;49.696;8.662;2023-02-01T00:31:22;5.00;99.90
11894;DHT22;6006;49.696;8.662;2023-02-01T00:33:49;4.90;99.90
11894;DHT22;6006;49.696;8.662;2023-02-01T00:36:17;4.90;99.90
11894;DHT22;6006;49.696;8.662;2023-02-01T00:38:44;4.90;99.90
11894;DHT22;6006;49.696;8.662;2023-02-01T00:41:13;4.90;99.90
11894;DHT22;6006;49.696;8.662;2023-02-01T00:43:40;5.00;99.90
11894;DHT22;6006;49.696;8.662;2023-02-01T00:46:07;5.00;99.90
11894;DHT22;6006;49.696;8.662;2023-02-01T00:48:36;5.00;99.90
11894;DHT22;6006;49.696;8.662;2023-02-01T00:51:05;5.00;99.90
11894;DHT22;6006;49.696;8.662;2023-02-01T00:53:33;5.00;99.90
11894;DHT22;6006;49.696;8.662;2023-02-01T00:56:01;5.00;99.90
11894;DHT22;6006;49.696;8.662;2023-02-01T00:58:28;5.10;99.90
11894;DHT22;6006;49.696;8.662;2023-02-01T01:01:03;5.10;99.90
11894;DHT22;6006;49.696;8.662;2023-02-01T01:03:31;5.20;99.90
11894;DHT22;6006;49.696;8.662;2023-02-01T01:06:02;5.10;99.90
11894;DHT22;6006;49.696;8.662;2023-02-01T01:08:29;5.10;99.90
11894;DHT22;6006;49.696;8.662;2023-02-01T01:10:56;5.10;99.90
11894;DHT22;6006;49.696;8.662;2023-02-01T01:13:24;5.10;99.90
11894;DHT22;6006;49.696;8.662;2023-02-01T01:15:51;5.10;99.90
11894;DHT22;6006;49.696;8.662;2023-02-01T01:18:18;5.10;99.90
11894;DHT22;6006;49.696;8.662;2023-02-01T01:20:44;5.10;99.90
11894;DHT22;6006;49.696;8.662;2023-02-01T01:23:13;5.10;99.90
11894;DHT22;6006;49.696;8.662;2023-02-01T01:25:39;5.10;99.90
11894;DHT22;6006;49.696;8.662;2023-02-01T01:28:07;5.10;99.90
11894;DHT22;6006;49.696;8.662;2023-02-01T01:30:34;5.20;99.90
11894;DHT22;6006;49.696;8.662;2023-02-01T01:33:01;5.20;99.90
11894;DHT22;6006;49.696;8.662;2023-02-01T01:35:29;5.20;99.90
11894;DHT22;6006;49.696;8.662;2023-02-01T01:37:56;5.20;99.90
11894;DHT22;6006;49.696;8.662;2023-02-01T01:40:25;5.20;99.90
11894;DHT22;6006;49.696;8.662;2023-02-01T01:42:52;5.20;99.90
11894;DHT22;6006;49.696;8.662;2023-02-01T01:45:24;5.30;99.90
11894;DHT22;6006;49.696;8.662;2023-02-01T01:47:53;5.30;99.90
11894;DHT22;6006;49.696;8.662;2023-02-01T01:50:23;5.30;99.90
11894;DHT22;6006;49.696;8.662;2023-02-01T01:52:52;5.30;99.90
11894;DHT22;6006;49.696;8.662;2023-02-01T01:55:22;5.30;99.90
11894;DHT22;6006;49.696;8.662;2023-02-01T01:57:57;5.30;99.90
11894;DHT22;6006;49.696;8.662;2023-02-01T02:00:25;5.30;99.90
11894;DHT22;6006;49.696;8.662;2023-02-01T02:02:56;5.30;99.90
11894;DHT22;6006;49.696;8.662;2023-02-01T02:05:25;5.30;99.90
11894;DHT22;6006;49.696;8.662;2023-02-01T02:07:53;5.30;99.90
11894;DHT22;6006;49.696;8.662;2023-02-01T02:10:23;5.30;99.90
11894;DHT22;6006;49.696;8.662;2023-02-01T02:13:12;5.30;99.90
11894;DHT22;6006;49.696;8.662;2023-02-01T02:15:43;5.30;99.90
11894;DHT22;6006;49.696;8.662;2023-02-01T02:18:17;5.30;99.90
11894;DHT22;6006;49.696;8.662;2023-02-01T02:20:58;5.30;99.90
11894;DHT22;6006;49.696;8.662;2023-02-01T02:26:34;5.20;99.90
11894;DHT22;6006;49.696;8.662;2023-02-01T02:29:23;5.30;99.90
11894;DHT22;6006;49.696;8.662;2023-02-01T02:34:52;5.30;99.90
11894;DHT22;6006;49.696;8.662;2023-02-01T02:37:28;5.20;99.90
11894;DHT22;6006;49.696;8.662;2023-02-01T02:40:04;5.20;99.90
11894;DHT22;6006;49.696;8.662;2023-02-01T02:42:38;5.20;99.90
11894;DHT22;6006;49.696;8.662;2023-02-01T02:45:27;5.20;99.90
11894;DHT22;6006;49.696;8.662;2023-02-01T02:48:20;5.20;99.90
11894;DHT22;6006;49.696;8.662;2023-02-01T02:50:57;5.20;99.90
11894;DHT22;6006;49.696;8.662;2023-02-01T02:53:53;5.20;99.90
11894;DHT22;6006;49.696;8.662;2023-02-01T02:56:41;5.20;99.90
11894;DHT22;6006;49.696;8.662;2023-02-01T02:59:27;5.20;99.90
11894;DHT22;6006;49.696;8.662;2023-02-01T03:02:12;5.20;99.90
11894;DHT22;6006;49.696;8.662;2023-02-01T03:04:57;5.20;99.90
11894;DHT22;6006;49.696;8.662;2023-02-01T03:07:52;5.20;99.90
11894;DHT22;6006;49.696;8.662;2023-02-01T03:10:24;5.20;99.90
11894;DHT22;6006;49.696;8.662;2023-02-01T03:12:53;5.10;99.90
11894;DHT22;6006;49.696;8.662;2023-02-01T03:15:28;5.10;99.90
11894;DHT22;6006;49.696;8.662;2023-02-01T03:17:58;5.10;99.90
11894;DHT22;6006;49.696;8.662;2023-02-01T03:20:29;5.10;99.90
11894;DHT22;6006;49.696;8.662;2023-02-01T03:22:59;5.10;99.90
11894;DHT22;6006;49.696;8.662;2023-02-01T03:25:28;5.10;99.90
11894;DHT22;6006;49.696;8.662;2023-02-01T03:28:00;5.10;99.90
11894;DHT22;6006;49.696;8.662;2023-02-01T03:30:31;5.10;99.90
11894;DHT22;6006;49.696;8.662;2023-02-01T03:33:04;5.10;99.90
11894;DHT22;6006;49.696;8.662;2023-02-01T03:35:40;5.10;99.90
11894;DHT22;6006;49.696;8.662;2023-02-01T03:38:17;5.10;99.90
11894;DHT22;6006;49.696;8.662;2023-02-01T03:40:51;5.10;99.90
11894;DHT22;6006;49.696;8.662;2023-02-01T03:43:19;5.10;99.90
11894;DHT22;6006;49.696;8.662;2023-02-01T03:45:50;5.10;99.90
11894;DHT22;6006;49.696;8.662;2023-02-01T03:48:20;5.10;99.90
11894;DHT22;6006;49.696;8.662;2023-02-01T03:50:52;5.10;99.90
11894;DHT22;6006;49.696;8.662;2023-02-01T03:53:24;5.10;99.90
11894;DHT22;6006;49.696;8.662;2023-02-01T03:55:53;5.10;99.90
11894;DHT22;6006;49.696;8.662;2023-02-01T03:58:21;5.10;99.90
11894;DHT22;6006;49.696;8.662;2023-02-01T04:00:51;5.00;99.90
11894;DHT22;6006;49.696;8.662;2023-02-01T04:03:19;5.00;99.90
11894;DHT22;6006;49.696;8.662;2023-02-01T04:05:47;5.10;99.90
11894;DHT22;6006;49.696;8.662;2023-02-01T04:08:14;5.10;99.90
11894;DHT22;6006;49.696;8.662;2023-02-01T04:10:42;5.10;99.90
11894;DHT22;6006;49.696;8.662;2023-02-01T04:13:09;5.10;99.90
11894;DHT22;6006;49.696;8.662;2023-02-01T04:15:36;5.10;99.90
11894;DHT22;6006;49.696;8.662;2023-02-01T04:18:03;5.20;99.90
11894;DHT22;6006;49.696;8.662;2023-02-01T04:20:30;5.20;99.90
11894;DHT22;6006;49.696;8.662;2023-02-01T04:22:57;5.20;99.90
11894;DHT22;6006;49.696;8.662;2023-02-01T04:25:24;5.20;99.90
11894;DHT22;6006;49.696;8.662;2023-02-01T04:27:52;5.20;99.90
11894;DHT22;6006;49.696;8.662;2023-02-01T04:30:19;5.20;99.90
11894;DHT22;6006;49.696;8.662;2023-02-01T04:32:46;5.20;99.90
11894;DHT22;6006;49.696;8.662;2023-02-01T04:35:13;5.20;99.90
11894;DHT22;6006;49.696;8.662;2023-02-01T04:37:40;5.20;99.90
11894;DHT22;6006;49.696;8.662;2023-02-01T04:40:08;5.20;99.90
11894;DHT22;6006;49.696;8.662;2023-02-01T04:42:35;5.20;99.90
11894;DHT22;6006;49.696;8.662;2023-02-01T04:45:04;5.20;99.90
11894;DHT22;6006;49.696;8.662;2023-02-01T04:47:31;5.10;99.90
11894;DHT22;6006;49.696;8.662;2023-02-01T04:49:58;5.10;99.90
11894;DHT22;6006;49.696;8.662;2023-02-01T04:52:25;5.20;99.90
11894;DHT22;6006;49.696;8.662;2023-02-01T04:54:52;5.20;99.90
11894;DHT22;6006;49.696;8.662;2023-02-01T04:57:22;5.20;99.90
11894;DHT22;6006;49.696;8.662;2023-02-01T04:59:49;5.20;99.90
11894;DHT22;6006;49.696;8.662;2023-02-01T05:02:18;5.20;99.90
11894;DHT22;6006;49.696;8.662;2023-02-01T05:04:44;5.20;99.90
11894;DHT22;6006;49.696;8.662;2023-02-01T05:07:11;5.20;99.90
11894;DHT22;6006;49.696;8.662;2023-02-01T05:09:38;5.20;99.90
11894;DHT22;6006;49.696;8.662;2023-02-01T05:12:05;5.20;99.90
11894;DHT22;6006;49.696;8.662;2023-02-01T05:14:50;5.20;99.90
11894;DHT22;6006;49.696;8.662;2023-02-01T05:17:18;5.20;99.90
11894;DHT22;6006;49.696;8.662;2023-02-01T05:19:45;5.20;99.90
11894;DHT22;6006;49.696;8.662;2023-02-01T05:22:12;5.20;99.90
11894;DHT22;6006;49.696;8.662;2023-02-01T05:24:39;5.20;99.90
11894;DHT22;6006;49.696;8.662;2023-02-01T05:27:05;5.20;99.90
11894;DHT22;6006;49.696;8.662;2023-02-01T05:29:32;5.20;99.90
11894;DHT22;6006;49.696;8.662;2023-02-01T05:31:59;5.20;99.90
11894;DHT22;6006;49.696;8.662;2023-02-01T05:34:27;5.10;99.90
11894;DHT22;6006;49.696;8.662;2023-02-01T05:36:54;5.10;99.90
11894;DHT22;6006;49.696;8.662;2023-02-01T05:39:21;5.10;99.90
11894;DHT22;6006;49.696;8.662;2023-02-01T05:41:48;5.10;99.90
11894;DHT22;6006;49.696;8.662;2023-02-01T05:44:15;5.10;99.90
11894;DHT22;6006;49.696;8.662;2023-02-01T05:46:42;5.10;99.90
11894;DHT22;6006;49.696;8.662;2023-02-01T05:49:09;5.10;99.90
11894;DHT22;6006;49.696;8.662;2023-02-01T05:51:37;5.10;99.90
11894;DHT22;6006;49.696;8.662;2023-02-01T05:54:04;5.00;99.90
11894;DHT22;6006;49.696;8.662;2023-02-01T05:56:31;5.00;99.90
11894;DHT22;6006;49.696;8.662;2023-02-01T05:58:58;5.00;99.90
11894;DHT22;6006;49.696;8.662;2023-02-01T06:01:25;5.00;99.90
11894;DHT22;6006;49.696;8.662;2023-02-01T06:03:51;5.00;99.90
11894;DHT22;6006;49.696;8.662;2023-02-01T06:06:18;5.10;99.90
11894;DHT22;6006;49.696;8.662;2023-02-01T06:08:47;5.10;99.90
11894;DHT22;6006;49.696;8.662;2023-02-01T06:11:13;5.00;99.90
11894;DHT22;6006;49.696;8.662;2023-02-01T06:13:40;5.00;99.90
11894;DHT22;6006;49.696;8.662;2023-02-01T06:16:07;5.00;99.90
11894;DHT22;6006;49.696;8.662;2023-02-01T06:18:34;4.90;99.90
11894;DHT22;6006;49.696;8.662;2023-02-01T06:21:01;4.90;99.90
11894;DHT22;6006;49.696;8.662;2023-02-01T06:23:29;4.90;99.90
11894;DHT22;6006;49.696;8.662;2023-02-01T06:26:02;5.00;99.90
11894;DHT22;6006;49.696;8.662;2023-02-01T06:28:31;5.00;99.90
11894;DHT22;6006;49.696;8.662;2023-02-01T06:30:58;5.00;99.90
11894;DHT22;6006;49.696;8.662;2023-02-01T06:33:25;5.00;99.90
11894;DHT22;6006;49.696;8.662;2023-02-01T06:35:57;5.00;99.90
11894;DHT22;6006;49.696;8.662;2023-02-01T06:38:24;5.00;99.90
11894;DHT22;6006;49.696;8.662;2023-02-01T06:40:53;5.00;99.90
11894;DHT22;6006;49.696;8.662;2023-02-01T06:43:22;5.00;99.90
11894;DHT22;6006;49.696;8.662;2023-02-01T06:45:49;5.00;99.90
11894;DHT22;6006;49.696;8.662;2023-02-01T06:48:16;5.00;99.90
11894;DHT22;6006;49.696;8.662;2023-02-01T06:50:43;5.00;99.90
11894;DHT22;6006;49.696;8.662;2023-02-01T06:53:10;5.10;99.90
11894;DHT22;6006;49.696;8.662;2023-02-01T06:55:37;5.10;99.90
11894;DHT22;6006;49.696;8.662;2023-02-01T06:58:04;5.10;99.90
11894;DHT22;6006;49.696;8.662;2023-02-01T07:00:32;5.20;99.90
11894;DHT22;6006;49.696;8.662;2023-02-01T07:02:59;5.20;99.90
11894;DHT22;6006;49.696;8.662;2023-02-01T07:05:27;5.20;99.90
11894;DHT22;6006;49.696;8.662;2023-02-01T07:07:54;5.20;99.90
11894;DHT22;6006;49.696;8.662;2023-02-01T07:10:21;5.30;99.90
11894;DHT22;6006;49.696;8.662;2023-02-01T07:12:48;5.40;99.90
11894;DHT22;6006;49.696;8.662;2023-02-01T07:15:15;5.60;99.90
11894;DHT22;6006;49.696;8.662;2023-02-01T07:17:43;5.60;99.90
11894;DHT22;6006;49.696;8.662;2023-02-01T07:20:12;5.40;99.90
11894;DHT22;6006;49.696;8.662;2023-02-01T07:22:39;5.40;99.90
11894;DHT22;6006;49.696;8.662;2023-02-01T07:25:07;5.40;99.90
11894;DHT22;6006;49.696;8.662;2023-02-01T07:27:34;5.40;99.90
11894;DHT22;6006;49.696;8.662;2023-02-01T07:30:01;5.30;99.90
11894;DHT22;6006;49.696;8.662;2023-02-01T07:32:28;5.30;99.90
11894;DHT22;6006;49.696;8.662;2023-02-01T07:34:57;5.20;99.90
11894;DHT22;6006;49.696;8.662;2023-02-01T07:37:24;5.10;99.90
11894;DHT22;6006;49.696;8.662;2023-02-01T07:39:51;5.10;99.90
11894;DHT22;6006;49.696;8.662;2023-02-01T07:42:18;5.00;99.90
11894;DHT22;6006;49.696;8.662;2023-02-01T07:44:45;4.90;99.90
11894;DHT22;6006;49.696;8.662;2023-02-01T07:47:12;4.90;99.90
11894;DHT22;6006;49.696;8.662;2023-02-01T07:49:39;4.80;99.90
11894;DHT22;6006;49.696;8.662;2023-02-01T07:52:07;4.70;99.90
11894;DHT22;6006;49.696;8.662;2023-02-01T07:54:35;4.60;99.90
11894;DHT22;6006;49.696;8.662;2023-02-01T07:57:02;4.60;99.90
11894;DHT22;6006;49.696;8.662;2023-02-01T07:59:29;4.60;99.90
11894;DHT22;6006;49.696;8.662;2023-02-01T08:01:56;4.50;99.90
11894;DHT22;6006;49.696;8.662;2023-02-01T08:04:22;4.40;99.90
11894;DHT22;6006;49.696;8.662;2023-02-01T08:06:49;4.40;99.90
11894;DHT22;6006;49.696;8.662;2023-02-01T08:09:17;4.40;99.90
11894;DHT22;6006;49.696;8.662;2023-02-01T08:11:44;4.40;99.90
11894;DHT22;6006;49.696;8.662;2023-02-01T08:14:10;4.40;99.90
11894;DHT22;6006;49.696;8.662;2023-02-01T08:16:37;4.50;99.90
11894;DHT22;6006;49.696;8.662;2023-02-01T08:19:04;4.50;99.90
11894;DHT22;6006;49.696;8.662;2023-02-01T08:21:31;4.70;99.90
11894;DHT22;6006;49.696;8.662;2023-02-01T08:24:04;4.80;99.90
11894;DHT22;6006;49.696;8.662;2023-02-01T08:26:32;4.90;99.90
11894;DHT22;6006;49.696;8.662;2023-02-01T08:29:01;5.10;99.90
11894;DHT22;6006;49.696;8.662;2023-02-01T08:31:30;5.10;99.90
11894;DHT22;6006;49.696;8.662;2023-02-01T08:33:58;5.20;99.90
11894;DHT22;6006;49.696;8.662;2023-02-01T08:36:26;5.30;99.90
11894;DHT22;6006;49.696;8.662;2023-02-01T08:38:54;5.30;99.90
11894;DHT22;6006;49.696;8.662;2023-02-01T08:41:22;5.40;99.90
11894;DHT22;6006;49.696;8.662;2023-02-01T08:43:51;5.50;99.90
11894;DHT22;6006;49.696;8.662;2023-02-01T08:46:20;5.50;99.90
11894;DHT22;6006;49.696;8.662;2023-02-01T08:48:47;5.60;99.90
11894;DHT22;6006;49.696;8.662;2023-02-01T08:51:16;5.70;99.90
11894;DHT22;6006;49.696;8.662;2023-02-01T08:53:43;5.80;99.90
11894;DHT22;6006;49.696;8.662;2023-02-01T08:56:13;5.90;99.90
11894;DHT22;6006;49.696;8.662;2023-02-01T08:58:40;6.00;99.90
11894;DHT22;6006;49.696;8.662;2023-02-01T09:01:10;6.20;99.90
11894;DHT22;6006;49.696;8.662;2023-02-01T09:03:37;6.20;99.90
11894;DHT22;6006;49.696;8.662;2023-02-01T09:06:06;6.10;99.90
11894;DHT22;6006;49.696;8.662;2023-02-01T09:08:34;6.10;99.90
11894;DHT22;6006;49.696;8.662;2023-02-01T09:11:01;6.00;99.90
11894;DHT22;6006;49.696;8.662;2023-02-01T09:13:28;6.00;99.90
11894;DHT22;6006;49.696;8.662;2023-02-01T09:15:55;5.90;99.90
11894;DHT22;6006;49.696;8.662;2023-02-01T09:18:24;5.90;99.90
11894;DHT22;6006;49.696;8.662;2023-02-01T09:20:51;6.00;99.90
11894;DHT22;6006;49.696;8.662;2023-02-01T09:23:18;6.00;99.90
11894;DHT22;6006;49.696;8.662;2023-02-01T09:25:46;6.00;99.90
11894;DHT22;6006;49.696;8.662;2023-02-01T09:28:15;5.90;99.90
11894;DHT22;6006;49.696;8.662;2023-02-01T09:30:42;5.90;99.90
11894;DHT22;6006;49.696;8.662;2023-02-01T09:33:09;6.00;99.90
11894;DHT22;6006;49.696;8.662;2023-02-01T09:35:37;6.10;99.90
11894;DHT22;6006;49.696;8.662;2023-02-01T09:38:04;6.30;99.90
11894;DHT22;6006;49.696;8.662;2023-02-01T09:40:33;7.00;99.90
11894;DHT22;6006;49.696;8.662;2023-02-01T09:43:19;6.40;99.90
11894;DHT22;6006;49.696;8.662;2023-02-01T09:45:54;6.30;99.90
11894;DHT22;6006;49.696;8.662;2023-02-01T09:48:26;6.20;99.90
11894;DHT22;6006;49.696;8.662;2023-02-01T09:50:57;6.30;99.90
11894;DHT22;6006;49.696;8.662;2023-02-01T09:53:29;6.20;99.90
11894;DHT22;6006;49.696;8.662;2023-02-01T09:56:02;6.10;99.90
11894;DHT22;6006;49.696;8.662;2023-02-01T09:58:35;6.20;99.90
11894;DHT22;6006;49.696;8.662;2023-02-01T10:01:05;6.10;99.90
11894;DHT22;6006;49.696;8.662;2023-02-01T10:03:36;6.10;99.90
11894;DHT22;6006;49.696;8.662;2023-02-01T10:06:27;6.10;99.90
11894;DHT22;6006;49.696;8.662;2023-02-01T10:09:12;6.00;99.90
11894;DHT22;6006;49.696;8.662;2023-02-01T10:11:47;6.00;99.90
11894;DHT22;6006;49.696;8.662;2023-02-01T10:14:40;6.00;99.90
11894;DHT22;6006;49.696;8.662;2023-02-01T10:17:16;6.10;99.90
11894;DHT22;6006;49.696;8.662;2023-02-01T10:19:51;6.00;99.90
11894;DHT22;6006;49.696;8.662;2023-02-01T10:22:30;6.00;99.90
11894;DHT22;6006;49.696;8.662;2023-02-01T10:25:07;5.90;99.90
11894;DHT22;6006;49.696;8.662;2023-02-01T10:27:38;6.00;99.90
11894;DHT22;6006;49.696;8.662;2023-02-01T10:30:16;6.00;99.90
11894;DHT22;6006;49.696;8.662;2023-02-01T10:32:44;6.00;99.90
11894;DHT22;6006;49.696;8.662;2023-02-01T10:35:15;6.10;1.00
11894;DHT22;6006;49.696;8.662;2023-02-01T10:37:44;6.20;1.00
11894;DHT22;6006;49.696;8.662;2023-02-01T10:40:17;6.20;1.00
11894;DHT22;6006;49.696;8.662;2023-02-01T10:42:47;6.30;1.00
11894;DHT22;6006;49.696;8.662;2023-02-01T10:45:18;6.30;1.00
11894;DHT22;6006;49.696;8.662;2023-02-01T10:47:47;6.20;1.00
11894;DHT22;6006;49.696;8.662;2023-02-01T10:50:30;6.30;1.00
11894;DHT22;6006;49.696;8.662;2023-02-01T10:53:05;6.30;1.00
11894;DHT22;6006;49.696;8.662;2023-02-01T10:55:36;6.30;99.90
11894;DHT22;6006;49.696;8.662;2023-02-01T10:58:05;6.30;1.00
11894;DHT22;6006;49.696;8.662;2023-02-01T11:00:42;6.30;1.00
11894;DHT22;6006;49.696;8.662;2023-02-01T11:03:37;6.20;1.00
11894;DHT22;6006;49.696;8.662;2023-02-01T11:06:16;6.30;1.00
11894;DHT22;6006;49.696;8.662;2023-02-01T11:08:51;6.30;1.00
11894;DHT22;6006;49.696;8.662;2023-02-01T11:11:19;6.30;1.00
11894;DHT22;6006;49.696;8.662;2023-02-01T11:13:53;6.30;1.00
11894;DHT22;6006;49.696;8.662;2023-02-01T11:16:21;6.20;1.00
11894;DHT22;6006;49.696;8.662;2023-02-01T11:18:54;6.30;1.00
11894;DHT22;6006;49.696;8.662;2023-02-01T11:21:22;6.30;1.00
11894;DHT22;6006;49.696;8.662;2023-02-01T11:23:50;6.30;1.00
11894;DHT22;6006;49.696;8.662;2023-02-01T11:26:21;6.30;1.00
11894;DHT22;6006;49.696;8.662;2023-02-01T11:28:53;6.30;1.00
11894;DHT22;6006;49.696;8.662;2023-02-01T11:31:22;6.30;1.00
11894;DHT22;6006;49.696;8.662;2023-02-01T11:33:52;6.30;1.00
11894;DHT22;6006;49.696;8.662;2023-02-01T11:36:23;6.30;1.00
11894;DHT22;6006;49.696;8.662;2023-02-01T11:39:06;6.30;1.00
11894;DHT22;6006;49.696;8.662;2023-02-01T11:41:34;6.40;99.90
11894;DHT22;6006;49.696;8.662;2023-02-01T11:44:11;6.40;1.00
11894;DHT22;6006;49.696;8.662;2023-02-01T11:46:42;6.40;1.00
11894;DHT22;6006;49.696;8.662;2023-02-01T11:49:20;6.50;1.00
11894;DHT22;6006;49.696;8.662;2023-02-01T11:52:03;6.50;99.90
11894;DHT22;6006;49.696;8.662;2023-02-01T11:54:49;6.50;1.00
11894;DHT22;6006;49.696;8.662;2023-02-01T11:57:37;6.50;99.90
11894;DHT22;6006;49.696;8.662;2023-02-01T12:00:19;6.50;1.00
11894;DHT22;6006;49.696;8.662;2023-02-01T12:03:25;6.50;1.00
11894;DHT22;6006;49.696;8.662;2023-02-01T12:05:59;6.50;1.00
11894;DHT22;6006;49.696;8.662;2023-02-01T12:08:37;6.50;1.00
11894;DHT22;6006;49.696;8.662;2023-02-01T12:11:24;6.50;99.90
11894;DHT22;6006;49.696;8.662;2023-02-01T12:14:05;6.50;99.90
11894;DHT22;6006;49.696;8.662;2023-02-01T12:16:40;6.60;99.90
11894;DHT22;6006;49.696;8.662;2023-02-01T12:19:31;6.60;99.90
11894;DHT22;6006;49.696;8.662;2023-02-01T12:22:14;6.60;1.00
11894;DHT22;6006;49.696;8.662;2023-02-01T12:28:02;6.60;1.00
11894;DHT22;6006;49.696;8.662;2023-02-01T12:31:06;6.60;99.90
11894;DHT22;6006;49.696;8.662;2023-02-01T12:33:50;6.70;99.90
11894;DHT22;6006;49.696;8.662;2023-02-01T12:36:21;6.70;26.60
11894;DHT22;6006;49.696;8.662;2023-02-01T12:38:55;6.70;99.90
11894;DHT22;6006;49.696;8.662;2023-02-01T12:41:43;6.70;1.00
11894;DHT22;6006;49.696;8.662;2023-02-01T12:44:26;6.60;99.90
11894;DHT22;6006;49.696;8.662;2023-02-01T12:46:56;6.70;1.00
11894;DHT22;6006;49.696;8.662;2023-02-01T12:49:31;6.60;1.00
11894;DHT22;6006;49.696;8.662;2023-02-01T12:52:04;6.60;72.60
11894;DHT22;6006;49.696;8.662;2023-02-01T12:54:36;6.60;1.00
11894;DHT22;6006;49.696;8.662;2023-02-01T12:57:05;6.60;1.00
11894;DHT22;6006;49.696;8.662;2023-02-01T12:59:40;6.70;99.90
11894;DHT22;6006;49.696;8.662;2023-02-01T13:02:15;6.80;1.00
11894;DHT22;6006;49.696;8.662;2023-02-01T13:04:53;6.80;1.00
11894;DHT22;6006;49.696;8.662;2023-02-01T13:07:26;6.90;1.00
11894;DHT22;6006;49.696;8.662;2023-02-01T13:09:59;6.20;1.00
11894;DHT22;6006;49.696;8.662;2023-02-01T13:12:31;6.90;99.90
11894;DHT22;6006;49.696;8.662;2023-02-01T13:15:04;6.90;99.90
11894;DHT22;6006;49.696;8.662;2023-02-01T13:17:36;6.90;99.90
11894;DHT22;6006;49.696;8.662;2023-02-01T13:20:10;6.90;1.00
11894;DHT22;6006;49.696;8.662;2023-02-01T13:22:43;6.90;99.90
11894;DHT22;6006;49.696;8.662;2023-02-01T13:25:13;6.80;1.00
11894;DHT22;6006;49.696;8.662;2023-02-01T13:27:40;6.80;1.00
11894;DHT22;6006;49.696;8.662;2023-02-01T13:30:15;6.80;1.00
11894;DHT22;6006;49.696;8.662;2023-02-01T13:33:11;6.80;1.00
11894;DHT22;6006;49.696;8.662;2023-02-01T13:36:17;6.80;24.90
11894;DHT22;6006;49.696;8.662;2023-02-01T13:39:31;6.80;1.00
11894;DHT22;6006;49.696;8.662;2023-02-01T13:42:04;6.70;99.90
11894;DHT22;6006;49.696;8.662;2023-02-01T13:44:37;6.70;1.00
11894;DHT22;6006;49.696;8.662;2023-02-01T13:47:16;6.70;1.00
11894;DHT22;6006;49.696;8.662;2023-02-01T13:49:43;6.70;99.90
11894;DHT22;6006;49.696;8.662;2023-02-01T13:52:36;6.70;1.00
11894;DHT22;6006;49.696;8.662;2023-02-01T13:55:22;6.70;1.00
11894;DHT22;6006;49.696;8.662;2023-02-01T13:57:52;6.60;99.90
11894;DHT22;6006;49.696;8.662;2023-02-01T14:00:27;6.70;1.00
11894;DHT22;6006;49.696;8.662;2023-02-01T14:03:16;6.90;1.00
11894;DHT22;6006;49.696;8.662;2023-02-01T14:06:03;6.60;1.00
11894;DHT22;6006;49.696;8.662;2023-02-01T14:08:45;6.70;82.40
11894;DHT22;6006;49.696;8.662;2023-02-01T14:11:32;6.70;43.40
11894;DHT22;6006;49.696;8.662;2023-02-01T14:23:25;6.70;1.00
11894;DHT22;6006;49.696;8.662;2023-02-01T14:26:09;6.60;1.00
11894;DHT22;6006;49.696;8.662;2023-02-01T14:28:42;6.60;1.00
11894;DHT22;6006;49.696;8.662;2023-02-01T14:34:03;6.60;18.00
11894;DHT22;6006;49.696;8.662;2023-02-01T14:36:42;6.60;1.00
11894;DHT22;6006;49.696;8.662;2023-02-01T14:39:28;6.60;99.90
11894;DHT22;6006;49.696;8.662;2023-02-01T14:41:58;6.60;1.00
11894;DHT22;6006;49.696;8.662;2023-02-01T14:44:29;6.60;99.90
11894;DHT22;6006;49.696;8.662;2023-02-01T14:47:27;6.60;99.90
11894;DHT22;6006;49.696;8.662;2023-02-01T14:49:58;6.60;94.30
11894;DHT22;6006;49.696;8.662;2023-02-01T14:52:31;6.60;1.00
11894;DHT22;6006;49.696;8.662;2023-02-01T14:55:05;6.70;1.00
11894;DHT22;6006;49.696;8.662;2023-02-01T14:57:36;6.70;1.00
11894;DHT22;6006;49.696;8.662;2023-02-01T15:00:19;6.70;1.00
11894;DHT22;6006;49.696;8.662;2023-02-01T15:02:47;6.70;1.00
11894;DHT22;6006;49.696;8.662;2023-02-01T15:05:33;6.80;99.90
11894;DHT22;6006;49.696;8.662;2023-02-01T15:08:05;6.80;99.90
11894;DHT22;6006;49.696;8.662;2023-02-01T15:10:43;6.80;59.20
11894;DHT22;6006;49.696;8.662;2023-02-01T15:13:21;6.90;1.00
11894;DHT22;6006;49.696;8.662;2023-02-01T15:16:04;6.90;99.90
11894;DHT22;6006;49.696;8.662;2023-02-01T15:18:31;6.80;41.80
11894;DHT22;6006;49.696;8.662;2023-02-01T15:21:00;6.80;1.00
11894;DHT22;6006;49.696;8.662;2023-02-01T15:23:27;6.90;1.00
11894;DHT22;6006;49.696;8.662;2023-02-01T15:25:55;7.00;1.00
11894;DHT22;6006;49.696;8.662;2023-02-01T15:28:23;7.00;99.90
11894;DHT22;6006;49.696;8.662;2023-02-01T15:30:55;7.00;99.90
11894;DHT22;6006;49.696;8.662;2023-02-01T15:33:23;7.10;1.00
11894;DHT22;6006;49.696;8.662;2023-02-01T15:35:52;7.10;1.00
11894;DHT22;6006;49.696;8.662;2023-02-01T15:38:36;7.00;99.90
11894;DHT22;6006;49.696;8.662;2023-02-01T15:41:07;7.10;99.90
11894;DHT22;6006;49.696;8.662;2023-02-01T15:43:38;7.10;1.00
11894;DHT22;6006;49.696;8.662;2023-02-01T15:46:11;7.20;42.30
11894;DHT22;6006;49.696;8.662;2023-02-01T15:48:47;7.10;91.20
11894;DHT22;6006;49.696;8.662;2023-02-01T15:51:17;7.20;99.90
11894;DHT22;6006;49.696;8.662;2023-02-01T15:53:47;7.10;99.90
11894;DHT22;6006;49.696;8.662;2023-02-01T15:56:16;7.10;99.90
11894;DHT22;6006;49.696;8.662;2023-02-01T15:58:51;7.20;99.90
11894;DHT22;6006;49.696;8.662;2023-02-01T16:01:19;7.20;99.90
11894;DHT22;6006;49.696;8.662;2023-02-01T16:03:46;7.10;99.90
11894;DHT22;6006;49.696;8.662;2023-02-01T16:06:27;7.10;99.90
11894;DHT22;6006;49.696;8.662;2023-02-01T16:09:01;7.10;99.90
11894;DHT22;6006;49.696;8.662;2023-02-01T16:11:31;7.10;1.00
11894;DHT22;6006;49.696;8.662;2023-02-01T16:13:58;7.00;1.00
11894;DHT22;6006;49.696;8.662;2023-02-01T16:16:26;7.00;99.90
11894;DHT22;6006;49.696;8.662;2023-02-01T16:18:53;7.10;99.90
11894;DHT22;6006;49.696;8.662;2023-02-01T16:21:20;7.10;99.90
11894;DHT22;6006;49.696;8.662;2023-02-01T16:23:49;7.00;99.90
11894;DHT22;6006;49.696;8.662;2023-02-01T16:26:17;7.00;99.90
11894;DHT22;6006;49.696;8.662;2023-02-01T16:28:45;6.90;99.90
11894;DHT22;6006;49.696;8.662;2023-02-01T16:31:14;6.90;99.90
11894;DHT22;6006;49.696;8.662;2023-02-01T16:33:46;6.80;1.00
11894;DHT22;6006;49.696;8.662;2023-02-01T16:36:13;6.80;1.00
11894;DHT22;6006;49.696;8.662;2023-02-01T16:38:41;6.70;99.90
11894;DHT22;6006;49.696;8.662;2023-02-01T16:41:12;6.70;99.90
11894;DHT22;6006;49.696;8.662;2023-02-01T16:43:39;6.70;1.00
11894;DHT22;6006;49.696;8.662;2023-02-01T16:46:13;6.80;1.00
11894;DHT22;6006;49.696;8.662;2023-02-01T16:48:42;6.70;1.00
11894;DHT22;6006;49.696;8.662;2023-02-01T16:51:13;6.70;70.00
11894;DHT22;6006;49.696;8.662;2023-02-01T16:53:41;6.70;1.00
11894;DHT22;6006;49.696;8.662;2023-02-01T16:56:13;6.60;99.90